createdAt,value
2023-04-16T00:01:10.873Z,101547.09
2023-04-16T00:03:38.097Z,101560.16
2023-04-16T00:06:05.540Z,101563.38
2023-04-16T00:08:32.524Z,101554.97
2023-04-16T00:10:59.691Z,101568.72
2023-04-16T00:13:27.962Z,101565.00
2023-04-16T00:15:55.077Z,101578.56
2023-04-16T00:18:22.104Z,101573.31
2023-04-16T00:20:49.426Z,101568.97
2023-04-16T00:23:17.355Z,101568.75
2023-04-16T00:25:44.354Z,101569.78
2023-04-16T00:28:11.354Z,101577.31
2023-04-16T00:30:38.606Z,101578.41
2023-04-16T00:33:05.837Z,101570.19
2023-04-16T00:35:32.905Z,101575.44
2023-04-16T00:37:59.924Z,101566.81
2023-04-16T00:40:30.712Z,101579.88
2023-04-16T00:42:57.767Z,101540.59
2023-04-16T00:45:24.857Z,101575.94
2023-04-16T00:47:52.221Z,101578.72
2023-04-16T00:50:19.450Z,101585.75
2023-04-16T00:52:49.888Z,101584.84
2023-04-16T00:55:19.048Z,101581.06
2023-04-16T00:57:46.300Z,101580.00
2023-04-16T01:00:14.180Z,101574.56
2023-04-16T01:02:41.334Z,101579.00
2023-04-16T01:05:08.681Z,101581.47
2023-04-16T01:07:35.854Z,101550.69
2023-04-16T01:10:04.244Z,101576.16
2023-04-16T01:12:32.709Z,101582.19
2023-04-16T01:15:00.033Z,101549.22
2023-04-16T01:17:27.261Z,101573.97
2023-04-16T01:19:54.325Z,101580.41
2023-04-16T01:22:21.380Z,101529.00
2023-04-16T01:24:48.579Z,101556.13
2023-04-16T01:27:15.800Z,101569.50
2023-04-16T01:29:43.080Z,101565.84
2023-04-16T01:32:10.638Z,101564.81
2023-04-16T01:34:40.949Z,101580.59
2023-04-16T01:37:13.535Z,101571.88
2023-04-16T01:39:40.602Z,101570.09
2023-04-16T01:42:08.657Z,101569.88
2023-04-16T01:44:35.818Z,101499.09
2023-04-16T01:47:02.982Z,101566.50
2023-04-16T01:49:30.653Z,101563.75
2023-04-16T01:51:57.714Z,101571.25
2023-04-16T01:54:25.545Z,101576.31
2023-04-16T01:56:52.520Z,101568.50
2023-04-16T01:59:19.667Z,101561.88
2023-04-16T02:01:47.323Z,101571.38
2023-04-16T02:04:14.479Z,101580.16
2023-04-16T02:06:41.823Z,101582.16
2023-04-16T02:09:09.297Z,101582.47
2023-04-16T02:11:37.868Z,101570.00
2023-04-16T02:14:05.134Z,101530.97
2023-04-16T02:16:32.308Z,101566.50
2023-04-16T02:19:19.681Z,101579.28
2023-04-16T02:21:47.050Z,101569.59
2023-04-16T02:24:14.209Z,101574.44
2023-04-16T02:26:42.849Z,101576.22
2023-04-16T02:29:16.658Z,101580.47
2023-04-16T02:31:49.910Z,101579.50
2023-04-16T02:34:17.282Z,101573.13
2023-04-16T02:36:44.496Z,101581.38
2023-04-16T02:39:11.698Z,101528.00
2023-04-16T02:41:38.873Z,101576.03
2023-04-16T02:44:06.365Z,101578.19
2023-04-16T02:46:33.432Z,101578.38
2023-04-16T02:49:00.755Z,101567.78
2023-04-16T02:51:27.923Z,101582.88
2023-04-16T02:53:54.970Z,101586.69
2023-04-16T02:56:21.987Z,101592.06
2023-04-16T02:58:49.066Z,101584.03
2023-04-16T03:01:16.503Z,101590.88
2023-04-16T03:03:43.618Z,101582.53
2023-04-16T03:06:11.011Z,101587.78
2023-04-16T03:08:38.167Z,101597.69
2023-04-16T03:11:05.402Z,101594.53
2023-04-16T03:13:32.432Z,101591.84
2023-04-16T03:15:59.830Z,101589.41
2023-04-16T03:18:27.077Z,101593.66
2023-04-16T03:20:54.373Z,101598.28
2023-04-16T03:23:21.612Z,101583.38
2023-04-16T03:25:48.705Z,101586.63
2023-04-16T03:28:18.730Z,101585.81
2023-04-16T03:30:54.880Z,101593.28
2023-04-16T03:33:22.856Z,101574.72
2023-04-16T03:35:58.620Z,101595.72
2023-04-16T03:38:29.020Z,101601.69
2023-04-16T03:40:57.780Z,101595.16
2023-04-16T03:43:25.686Z,101597.91
2023-04-16T03:45:52.833Z,101594.84
2023-04-16T03:48:23.222Z,101577.84
2023-04-16T03:50:50.441Z,101575.53
2023-04-16T03:53:19.589Z,101593.38
2023-04-16T03:55:54.062Z,101583.81
2023-04-16T03:58:22.131Z,101596.88
2023-04-16T04:00:49.517Z,101593.69
2023-04-16T04:03:18.749Z,101590.31
2023-04-16T04:05:48.706Z,101599.44
2023-04-16T04:08:21.310Z,101598.34
2023-04-16T04:10:48.288Z,101597.47
2023-04-16T04:13:16.271Z,101591.91
2023-04-16T04:15:44.741Z,101598.09
2023-04-16T04:18:12.029Z,101604.03
2023-04-16T04:20:41.911Z,101591.34
2023-04-16T04:23:09.128Z,101600.69
2023-04-16T04:25:36.363Z,101600.88
2023-04-16T04:28:03.493Z,101596.75
2023-04-16T04:30:30.808Z,101595.06
2023-04-16T04:32:58.497Z,101591.31
2023-04-16T04:35:25.809Z,101579.66
2023-04-16T04:37:53.470Z,101582.03
2023-04-16T04:40:21.453Z,101581.44
2023-04-16T04:42:48.637Z,101588.97
2023-04-16T04:45:16.213Z,101581.06
2023-04-16T04:47:43.440Z,101577.00
2023-04-16T04:50:11.303Z,101575.97
2023-04-16T04:52:38.983Z,101575.09
2023-04-16T04:55:07.817Z,101571.34
2023-04-16T04:57:35.836Z,101551.63
2023-04-16T05:00:05.965Z,101579.56
2023-04-16T05:02:41.632Z,101573.84
2023-04-16T05:05:09.059Z,101579.56
2023-04-16T05:07:36.441Z,101577.25
2023-04-16T05:10:03.471Z,101579.84
2023-04-16T05:12:32.186Z,101577.16
2023-04-16T05:14:59.325Z,101575.09
2023-04-16T05:17:26.624Z,101581.94
2023-04-16T05:19:53.862Z,101561.91
2023-04-16T05:22:20.932Z,101570.16
2023-04-16T05:24:48.038Z,101584.66
2023-04-16T05:27:15.773Z,101578.44
2023-04-16T05:29:43.045Z,101567.03
2023-04-16T05:32:10.437Z,101579.75
2023-04-16T05:34:37.503Z,101587.91
2023-04-16T05:37:04.520Z,101575.59
2023-04-16T05:39:31.549Z,101557.69
2023-04-16T05:41:58.723Z,101540.03
2023-04-16T05:44:25.998Z,101560.28
2023-04-16T05:46:53.053Z,101556.25
2023-04-16T05:49:20.352Z,101564.72
2023-04-16T05:51:49.120Z,101549.47
2023-04-16T05:54:17.742Z,101565.25
2023-04-16T05:56:44.801Z,101564.66
2023-04-16T05:59:12.072Z,101567.69
2023-04-16T06:01:39.268Z,101559.81
2023-04-16T06:04:06.513Z,101553.91
2023-04-16T06:06:33.625Z,101570.13
2023-04-16T06:09:01.039Z,101565.72
2023-04-16T06:11:30.005Z,101558.06
2023-04-16T06:13:57.076Z,101548.22
2023-04-16T06:16:24.157Z,101524.84
2023-04-16T06:18:51.178Z,101544.22
2023-04-16T06:21:18.221Z,101545.38
2023-04-16T06:23:45.293Z,101530.00
2023-04-16T06:26:12.677Z,101556.41
2023-04-16T06:28:39.688Z,101537.16
2023-04-16T06:31:06.808Z,101549.09
2023-04-16T06:33:33.841Z,101545.53
2023-04-16T06:36:00.853Z,101542.78
2023-04-16T06:38:27.809Z,101550.81
2023-04-16T06:40:54.878Z,101546.66
2023-04-16T06:43:22.191Z,101526.75
2023-04-16T06:45:49.241Z,101530.41
2023-04-16T06:48:16.337Z,101543.44
2023-04-16T06:50:43.378Z,101533.50
2023-04-16T06:53:10.586Z,101543.66
2023-04-16T06:55:37.650Z,101539.41
2023-04-16T06:58:04.779Z,101532.13
2023-04-16T07:00:31.805Z,101527.88
2023-04-16T07:03:01.368Z,101530.97
2023-04-16T07:05:28.688Z,101535.47
2023-04-16T07:07:57.806Z,101530.88
2023-04-16T07:10:25.589Z,101529.81
2023-04-16T07:12:52.995Z,101526.09
2023-04-16T07:15:20.128Z,101531.38
2023-04-16T07:17:47.390Z,101526.91
2023-04-16T07:20:14.629Z,101530.59
2023-04-16T07:22:41.850Z,101526.13
2023-04-16T07:25:09.372Z,101475.16
2023-04-16T07:27:36.376Z,101529.50
2023-04-16T07:30:04.057Z,101484.84
2023-04-16T07:32:32.267Z,101533.38
2023-04-16T07:34:59.240Z,101530.03
2023-04-16T07:37:26.244Z,101519.84
2023-04-16T07:39:54.116Z,101481.34
2023-04-16T07:42:22.678Z,101523.09
2023-04-16T07:44:49.690Z,101518.75
2023-04-16T07:47:16.757Z,101507.84
2023-04-16T07:49:44.199Z,101509.81
2023-04-16T07:52:11.343Z,101515.19
2023-04-16T07:54:38.373Z,101494.28
2023-04-16T07:57:05.542Z,101497.69
2023-04-16T07:59:32.597Z,101502.28
2023-04-16T08:01:59.746Z,101507.41
2023-04-16T08:04:27.657Z,101522.31
2023-04-16T08:06:54.987Z,101510.84
2023-04-16T08:09:23.986Z,101474.34
2023-04-16T08:11:51.091Z,101496.69
2023-04-16T08:14:18.269Z,101496.72
2023-04-16T08:16:45.271Z,101487.34
2023-04-16T08:19:12.707Z,101479.13
2023-04-16T08:21:40.056Z,101492.84
2023-04-16T08:24:07.283Z,101479.91
2023-04-16T08:26:34.570Z,101497.28
2023-04-16T08:29:01.638Z,101485.00
2023-04-16T08:31:29.044Z,101484.44
2023-04-16T08:33:56.025Z,101481.13
2023-04-16T08:36:23.124Z,101460.84
2023-04-16T08:38:50.758Z,101475.50
2023-04-16T08:41:18.293Z,101488.88
2023-04-16T08:43:48.762Z,101449.00
2023-04-16T08:46:17.946Z,101476.50
2023-04-16T08:48:49.745Z,101465.53
2023-04-16T08:51:20.011Z,101469.34
2023-04-16T08:53:53.782Z,101437.97
2023-04-16T08:56:25.941Z,101463.94
2023-04-16T08:58:55.448Z,101459.97
2023-04-16T09:01:22.867Z,101447.13
2023-04-16T09:03:50.041Z,101456.28
2023-04-16T09:06:17.579Z,101453.75
2023-04-16T09:08:45.925Z,101447.59
2023-04-16T09:11:14.551Z,101432.31
2023-04-16T09:13:41.643Z,101437.66
2023-04-16T09:16:09.598Z,101439.50
2023-04-16T09:18:36.650Z,101406.88
2023-04-16T09:21:04.780Z,101441.84
2023-04-16T09:23:31.882Z,101395.75
2023-04-16T09:25:59.588Z,101433.50
2023-04-16T09:28:50.916Z,101440.72
2023-04-16T09:31:19.772Z,101439.69
2023-04-16T09:34:08.571Z,101425.31
2023-04-16T09:36:36.709Z,101433.06
2023-04-16T09:39:04.359Z,101424.56
2023-04-16T09:41:36.228Z,101421.03
2023-04-16T09:44:05.450Z,101423.59
2023-04-16T09:46:41.854Z,101434.69
2023-04-16T09:49:12.989Z,101427.41
2023-04-16T09:51:44.450Z,101403.81
2023-04-16T09:54:11.489Z,101405.94
2023-04-16T09:56:46.892Z,101387.50
2023-04-16T09:59:21.154Z,101420.16
2023-04-16T10:02:12.286Z,101421.00
2023-04-16T10:04:52.242Z,101422.72
2023-04-16T10:07:20.114Z,101413.94
2023-04-16T10:09:50.198Z,101413.09
2023-04-16T10:12:17.216Z,101398.13
2023-04-16T10:14:44.291Z,101419.16
2023-04-16T10:17:11.712Z,101405.53
2023-04-16T10:19:39.467Z,101420.47
2023-04-16T10:22:06.829Z,101422.22
2023-04-16T10:24:35.050Z,101419.25
2023-04-16T10:27:02.686Z,101383.31
2023-04-16T10:29:31.663Z,101392.53
2023-04-16T10:31:59.798Z,101394.78
2023-04-16T10:34:29.051Z,101405.47
2023-04-16T10:36:56.177Z,101386.13
2023-04-16T10:39:25.443Z,101379.34
2023-04-16T10:42:08.850Z,101401.44
2023-04-16T10:44:36.703Z,101394.97
2023-04-16T10:47:09.949Z,101385.75
2023-04-16T10:49:37.170Z,101402.81
2023-04-16T10:52:18.721Z,101381.13
2023-04-16T10:54:47.969Z,101402.34
2023-04-16T10:57:20.167Z,101391.03
2023-04-16T10:59:49.061Z,101379.78
2023-04-16T11:02:19.800Z,101393.28
2023-04-16T11:04:49.311Z,101388.38
2023-04-16T11:07:18.378Z,101385.13
2023-04-16T11:10:00.000Z,101352.03
2023-04-16T11:12:32.825Z,101375.84
2023-04-16T11:15:05.777Z,101378.16
2023-04-16T11:17:43.173Z,101379.31
2023-04-16T11:20:30.672Z,101335.09
2023-04-16T11:22:58.293Z,101380.97
2023-04-16T11:25:31.518Z,101383.69
2023-04-16T11:27:59.398Z,101387.50
2023-04-16T11:30:35.291Z,101370.09
2023-04-16T11:33:08.449Z,101358.72
2023-04-16T11:35:36.006Z,101364.22
2023-04-16T11:38:03.053Z,101344.72
2023-04-16T11:40:31.758Z,101366.69
2023-04-16T11:43:04.068Z,101334.03
2023-04-16T11:45:31.325Z,101355.09
2023-04-16T11:47:58.559Z,101347.22
2023-04-16T11:50:27.802Z,101346.88
2023-04-16T11:52:57.445Z,101346.03
2023-04-16T11:55:25.007Z,101345.09
2023-04-16T11:57:52.500Z,101287.72
2023-04-16T12:00:23.743Z,101337.16
2023-04-16T12:02:54.797Z,101334.50
2023-04-16T12:05:34.780Z,101327.84
2023-04-16T12:08:04.285Z,101276.50
2023-04-16T12:10:35.249Z,101321.88
2023-04-16T12:13:17.024Z,101327.66
2023-04-16T12:15:57.270Z,101317.38
2023-04-16T12:18:27.162Z,101293.09
2023-04-16T12:20:54.517Z,101289.59
2023-04-16T12:23:30.080Z,101293.59
2023-04-16T12:26:02.836Z,101302.34
2023-04-16T12:28:35.600Z,101292.69
2023-04-16T12:31:03.665Z,101282.56
2023-04-16T12:33:31.522Z,101244.19
2023-04-16T12:35:58.968Z,101293.28
2023-04-16T12:38:26.937Z,101272.13
2023-04-16T12:40:57.254Z,101271.06
2023-04-16T12:43:25.630Z,101251.06
2023-04-16T12:45:52.864Z,101276.03
2023-04-16T12:48:20.011Z,101264.56
2023-04-16T12:50:47.028Z,101211.66
2023-04-16T12:53:14.171Z,101269.78
2023-04-16T12:55:41.211Z,101281.69
2023-04-16T12:58:11.107Z,101266.13
2023-04-16T13:00:40.595Z,101250.28
2023-04-16T13:03:08.055Z,101255.66
2023-04-16T13:05:35.536Z,101260.19
2023-04-16T13:08:02.758Z,101256.88
2023-04-16T13:10:30.155Z,101244.50
2023-04-16T13:12:57.502Z,101242.13
2023-04-16T13:15:24.707Z,101261.78
2023-04-16T13:17:51.945Z,101248.66
2023-04-16T13:20:19.355Z,101250.13
2023-04-16T13:22:46.501Z,101254.00
2023-04-16T13:25:13.541Z,101230.53
2023-04-16T13:27:40.719Z,101238.88
2023-04-16T13:30:08.341Z,101220.38
2023-04-16T13:32:35.561Z,101242.03
2023-04-16T13:35:02.776Z,101246.41
2023-04-16T13:37:31.047Z,101205.00
2023-04-16T13:39:58.317Z,101215.38
2023-04-16T13:42:25.314Z,101224.44
2023-04-16T13:44:54.316Z,101211.47
2023-04-16T13:47:21.870Z,101218.78
2023-04-16T13:49:49.126Z,101149.31
2023-04-16T13:52:16.264Z,101193.22
2023-04-16T13:54:43.318Z,101206.69
2023-04-16T13:57:19.995Z,101210.75
2023-04-16T13:59:47.167Z,101214.66
2023-04-16T14:02:14.306Z,101209.63
2023-04-16T14:04:42.088Z,101205.59
2023-04-16T14:07:09.160Z,101202.22
2023-04-16T14:09:36.669Z,101206.56
2023-04-16T14:12:03.900Z,101204.16
2023-04-16T14:14:31.293Z,101205.22
2023-04-16T14:16:59.244Z,101196.56
2023-04-16T14:19:26.292Z,101203.56
2023-04-16T14:21:53.288Z,101203.56
2023-04-16T14:24:20.392Z,101197.09
2023-04-16T14:26:47.471Z,101199.44
2023-04-16T14:29:14.543Z,101205.47
2023-04-16T14:31:41.742Z,101146.44
2023-04-16T14:34:08.866Z,101190.66
2023-04-16T14:36:36.630Z,101188.41
2023-04-16T14:39:04.153Z,101128.19
2023-04-16T14:41:31.564Z,101202.47
2023-04-16T14:43:59.827Z,101192.13
2023-04-16T14:46:27.223Z,101179.81
2023-04-16T14:48:54.319Z,101197.44
2023-04-16T14:51:21.461Z,101173.66
2023-04-16T14:53:48.600Z,101181.44
2023-04-16T14:56:15.738Z,101181.44
2023-04-16T14:58:43.507Z,101170.13
2023-04-16T15:01:10.646Z,101182.47
2023-04-16T15:03:37.994Z,101171.72
2023-04-16T15:08:32.873Z,101172.56
2023-04-16T15:10:59.950Z,101187.28
2023-04-16T15:13:33.731Z,101186.50
2023-04-16T15:16:06.987Z,101177.53
2023-04-16T15:18:34.158Z,101178.25
2023-04-16T15:21:01.380Z,101174.75
2023-04-16T15:23:28.432Z,101180.91
2023-04-16T15:25:55.535Z,101178.28
2023-04-16T15:28:22.657Z,101166.00
2023-04-16T15:30:49.947Z,101177.88
2023-04-16T15:33:16.969Z,101177.94
2023-04-16T15:35:44.164Z,101184.13
2023-04-16T15:38:11.313Z,101185.81
2023-04-16T15:40:38.866Z,101173.53
2023-04-16T15:43:06.613Z,101165.69
2023-04-16T15:45:33.681Z,101169.13
2023-04-16T15:48:00.791Z,101178.50
2023-04-16T15:50:27.941Z,101179.44
2023-04-16T15:52:54.955Z,101166.09
2023-04-16T15:55:22.164Z,101181.97
2023-04-16T15:57:49.156Z,101165.06
2023-04-16T16:00:19.226Z,101179.31
2023-04-16T16:02:47.471Z,101173.94
2023-04-16T16:05:15.260Z,101180.97
2023-04-16T16:07:43.360Z,101182.56
2023-04-16T16:10:11.800Z,101186.75
2023-04-16T16:12:40.707Z,101163.72
2023-04-16T16:15:08.391Z,101185.50
2023-04-16T16:17:36.197Z,101174.00
2023-04-16T16:20:04.188Z,101160.97
2023-04-16T16:22:31.449Z,101188.22
2023-04-16T16:24:58.547Z,101177.75
2023-04-16T16:27:25.683Z,101186.41
2023-04-16T16:29:52.764Z,101193.28
2023-04-16T16:32:19.784Z,101184.53
2023-04-16T16:34:46.858Z,101187.03
2023-04-16T16:37:13.921Z,101192.22
2023-04-16T16:39:41.207Z,101172.88
2023-04-16T16:42:09.288Z,101192.72
2023-04-16T16:44:36.912Z,101176.66
2023-04-16T16:47:04.100Z,101134.41
2023-04-16T16:49:31.238Z,101187.34
2023-04-16T16:51:58.246Z,101194.44
2023-04-16T16:54:25.377Z,101181.88
2023-04-16T16:56:53.020Z,101165.63
2023-04-16T16:59:20.371Z,101182.41
2023-04-16T17:01:47.422Z,101188.69
2023-04-16T17:04:14.679Z,101167.41
2023-04-16T17:06:42.148Z,101195.59
2023-04-16T17:09:09.509Z,101178.09
2023-04-16T17:11:37.370Z,101193.88
2023-04-16T17:14:04.417Z,101191.25
2023-04-16T17:16:31.458Z,101159.50
2023-04-16T17:18:59.366Z,101140.03
2023-04-16T17:21:26.373Z,101192.00
2023-04-16T17:23:54.632Z,101194.56
2023-04-16T17:26:22.502Z,101184.88
2023-04-16T17:28:50.939Z,101195.31
2023-04-16T17:31:18.284Z,101197.91
2023-04-16T17:33:45.427Z,101177.47
2023-04-16T17:36:12.926Z,101128.78
2023-04-16T17:38:40.265Z,101183.47
2023-04-16T17:41:07.769Z,101196.59
2023-04-16T17:43:34.738Z,101190.50
2023-04-16T17:46:01.880Z,101193.81
2023-04-16T17:48:29.104Z,101153.16
2023-04-16T17:50:56.141Z,101188.41
2023-04-16T17:53:23.166Z,101183.88
2023-04-16T17:55:51.958Z,101191.72
2023-04-16T17:58:19.895Z,101187.31
2023-04-16T18:00:46.929Z,101165.06
2023-04-16T18:03:14.863Z,101151.06
2023-04-16T18:05:42.080Z,101188.81
2023-04-16T18:08:09.178Z,101171.13
2023-04-16T18:10:36.359Z,101171.16
2023-04-16T18:13:03.883Z,101176.16
2023-04-16T18:15:30.973Z,101181.34
2023-04-16T18:17:58.054Z,101180.31
2023-04-16T18:20:25.149Z,101183.72
2023-04-16T18:22:52.239Z,101147.41
2023-04-16T18:25:25.616Z,101168.63
2023-04-16T18:28:00.521Z,101156.28
2023-04-16T18:30:28.227Z,101180.84
2023-04-16T18:33:25.399Z,101161.19
2023-04-16T18:35:42.455Z,101155.94
2023-04-16T18:38:09.576Z,101166.50
2023-04-16T18:40:37.437Z,101161.91
2023-04-16T18:43:04.504Z,101156.69
2023-04-16T18:48:02.948Z,101170.09
2023-04-16T18:50:30.218Z,101155.13
2023-04-16T18:52:57.229Z,101149.03
2023-04-16T18:55:24.353Z,101169.41
2023-04-16T18:57:51.343Z,101153.69
2023-04-16T19:00:18.654Z,101166.88
2023-04-16T19:02:45.807Z,101166.13
2023-04-16T19:05:12.855Z,101163.63
2023-04-16T19:07:40.129Z,101166.22
2023-04-16T19:10:07.826Z,101153.97
2023-04-16T19:12:35.104Z,101150.41
2023-04-16T19:15:02.201Z,101151.22
2023-04-16T19:17:32.119Z,101158.22
2023-04-16T19:19:59.352Z,101165.09
2023-04-16T19:22:26.744Z,101149.03
2023-04-16T19:24:54.775Z,101140.00
2023-04-16T19:27:21.774Z,101155.94
2023-04-16T19:29:49.024Z,101151.53
2023-04-16T19:32:16.120Z,101160.22
2023-04-16T19:34:43.301Z,101158.53
2023-04-16T19:37:10.472Z,101155.81
2023-04-16T19:39:37.482Z,101154.78
2023-04-16T19:42:04.848Z,101155.50
2023-04-16T19:44:32.567Z,101151.03
2023-04-16T19:46:59.836Z,101143.91
2023-04-16T19:49:34.552Z,101165.06
2023-04-16T19:52:01.978Z,101164.19
2023-04-16T19:54:29.352Z,101170.13
2023-04-16T19:56:57.146Z,101153.41
2023-04-16T19:59:25.128Z,101173.56
2023-04-16T20:01:52.132Z,101179.69
2023-04-16T20:04:19.353Z,101176.00
2023-04-16T20:06:46.653Z,101173.41
2023-04-16T20:09:13.804Z,101170.75
2023-04-16T20:11:40.861Z,101155.72
2023-04-16T20:14:07.846Z,101171.00
2023-04-16T20:16:35.241Z,101151.66
2023-04-16T20:19:06.458Z,101135.03
2023-04-16T20:21:35.092Z,101164.28
2023-04-16T20:24:02.825Z,101165.19
2023-04-16T20:26:34.228Z,101145.72
2023-04-16T20:29:01.581Z,101161.66
2023-04-16T20:31:29.093Z,101169.59
2023-04-16T20:33:56.227Z,101168.66
2023-04-16T20:36:23.215Z,101159.88
2023-04-16T20:38:53.235Z,101165.78
2023-04-16T20:41:21.497Z,101154.94
2023-04-16T20:43:53.015Z,101171.59
2023-04-16T20:46:24.458Z,101103.72
2023-04-16T20:48:51.947Z,101161.19
2023-04-16T20:51:19.057Z,101166.44
2023-04-16T20:53:46.140Z,101169.91
2023-04-16T20:56:15.055Z,101146.47
2023-04-16T20:58:42.975Z,101156.88
2023-04-16T21:01:10.586Z,101158.50
2023-04-16T21:03:38.047Z,101146.19
2023-04-16T21:06:05.347Z,101143.63
2023-04-16T21:08:32.437Z,101151.59
2023-04-16T21:10:59.508Z,101161.16
2023-04-16T21:13:26.651Z,101159.38
2023-04-16T21:15:53.757Z,101096.78
2023-04-16T21:18:21.025Z,101148.91
2023-04-16T21:20:48.130Z,101162.88
2023-04-16T21:23:15.184Z,101153.09
2023-04-16T21:25:42.217Z,101151.22
2023-04-16T21:28:09.250Z,101130.19
2023-04-16T21:30:37.108Z,101136.38
2023-04-16T21:33:04.300Z,101152.09
2023-04-16T21:35:33.254Z,101163.44
2023-04-16T21:38:00.372Z,101159.72
2023-04-16T21:40:27.366Z,101165.91
2023-04-16T21:42:55.287Z,101164.03
2023-04-16T21:45:22.395Z,101115.47
2023-04-16T21:47:49.599Z,101168.19
2023-04-16T21:50:16.713Z,101171.75
2023-04-16T21:52:46.761Z,101172.41
2023-04-16T21:55:17.109Z,101172.41
2023-04-16T21:57:44.071Z,101153.75
2023-04-16T22:00:14.566Z,101164.19
2023-04-16T22:02:43.023Z,101153.59
2023-04-16T22:05:11.437Z,101171.97
2023-04-16T22:07:38.721Z,101165.84
2023-04-16T22:10:06.936Z,101157.78
2023-04-16T22:12:37.812Z,101120.72
2023-04-16T22:15:05.910Z,101169.28
2023-04-16T22:17:34.470Z,101154.22
2023-04-16T22:20:08.988Z,101135.56
2023-04-16T22:22:36.206Z,101168.97
2023-04-16T22:25:03.526Z,101169.78
2023-04-16T22:27:33.139Z,101139.75
2023-04-16T22:30:00.160Z,101170.59
2023-04-16T22:32:27.920Z,101168.84
2023-04-16T22:34:55.205Z,101166.91
2023-04-16T22:37:22.324Z,101165.91
2023-04-16T22:39:49.288Z,101164.00
2023-04-16T22:42:16.372Z,101170.09
2023-04-16T22:44:43.466Z,101150.78
2023-04-16T22:47:10.547Z,101171.81
2023-04-16T22:49:37.579Z,101167.25
2023-04-16T22:52:04.721Z,101165.56
2023-04-16T22:54:32.453Z,101168.84
2023-04-16T22:57:01.156Z,101154.72
2023-04-16T22:59:28.162Z,101167.09
2023-04-16T23:01:55.255Z,101169.75
2023-04-16T23:04:22.445Z,101164.50
2023-04-16T23:06:49.533Z,101105.06
2023-04-16T23:09:17.104Z,101167.09
2023-04-16T23:11:44.069Z,101170.56
2023-04-16T23:14:11.049Z,101168.81
2023-04-16T23:16:38.041Z,101162.47
2023-04-16T23:19:05.064Z,101139.22
2023-04-16T23:21:32.593Z,101156.13
2023-04-16T23:23:59.581Z,101109.13
2023-04-16T23:26:26.685Z,101146.22
2023-04-16T23:28:53.671Z,101156.03
2023-04-16T23:31:20.746Z,101147.88
2023-04-16T23:33:47.824Z,101163.72
2023-04-16T23:36:14.800Z,101157.72
2023-04-16T23:38:41.790Z,101165.53
2023-04-16T23:41:08.743Z,101133.00
2023-04-16T23:43:36.503Z,101157.75
2023-04-16T23:46:03.575Z,101156.50
2023-04-16T23:48:30.671Z,101160.81
2023-04-16T23:50:57.703Z,101158.22
2023-04-16T23:53:24.706Z,101154.66
2023-04-16T23:55:52.089Z,101155.53
2023-04-16T23:58:19.125Z,101142.50
